createdAt,value
2018-08-02T00:00:13.970Z,1015.11
2018-08-02T00:01:13.974Z,1015.10
2018-08-02T00:02:13.968Z,1015.08
2018-08-02T00:03:13.964Z,1015.07
2018-08-02T00:04:13.966Z,1015.09
2018-08-02T00:05:13.966Z,1015.07
2018-08-02T00:06:13.963Z,1015.07
2018-08-02T00:07:13.964Z,1015.09
2018-08-02T00:08:13.964Z,1015.06
2018-08-02T00:09:13.962Z,1015.09
2018-08-02T00:10:13.964Z,1015.09
2018-08-02T00:11:13.957Z,1015.09
2018-08-02T00:12:13.956Z,1015.07
2018-08-02T00:13:13.960Z,1015.07
2018-08-02T00:14:13.955Z,1015.12
2018-08-02T00:15:13.955Z,1015.12
2018-08-02T00:16:13.990Z,1015.09
2018-08-02T00:17:13.953Z,1015.09
2018-08-02T00:18:13.956Z,1015.11
2018-08-02T00:19:13.949Z,1015.10
2018-08-02T00:20:13.949Z,1015.09
2018-08-02T00:21:13.949Z,1015.09
2018-08-02T00:22:13.946Z,1015.10
2018-08-02T00:23:13.946Z,1015.06
2018-08-02T00:24:13.946Z,1015.08
2018-08-02T00:25:13.944Z,1015.07
2018-08-02T00:26:13.943Z,1015.10
2018-08-02T00:27:13.945Z,1015.07
2018-08-02T00:28:13.940Z,1015.05
2018-08-02T00:29:13.941Z,1015.06
2018-08-02T00:30:13.950Z,1015.06
2018-08-02T00:31:13.936Z,1015.08
2018-08-02T00:32:13.936Z,1015.08
2018-08-02T00:33:13.935Z,1015.09
2018-08-02T00:34:13.936Z,1015.05
2018-08-02T00:35:13.935Z,1015.04
2018-08-02T00:36:13.935Z,1015.08
2018-08-02T00:37:13.932Z,1015.02
2018-08-02T00:38:13.932Z,1015.06
2018-08-02T00:39:13.929Z,1015.08
2018-08-02T00:40:13.929Z,1015.06
2018-08-02T00:41:13.928Z,1015.04
2018-08-02T00:42:13.927Z,1015.07
2018-08-02T00:43:13.924Z,1015.02
2018-08-02T00:44:13.926Z,1015.07
2018-08-02T00:45:13.922Z,1015.10
2018-08-02T00:46:13.921Z,1015.05
2018-08-02T00:47:13.917Z,1015.08
2018-08-02T00:48:13.924Z,1015.06
2018-08-02T00:49:13.925Z,1015.04
2018-08-02T00:50:13.918Z,1015.04
2018-08-02T00:51:13.917Z,1015.08
2018-08-02T00:52:13.915Z,1015.07
2018-08-02T00:53:13.912Z,1015.04
2018-08-02T00:54:13.910Z,1015.03
2018-08-02T00:55:13.907Z,1015.05
2018-08-02T00:56:13.911Z,1015.04
2018-08-02T00:57:13.912Z,1015.00
2018-08-02T00:58:13.909Z,1015.06
2018-08-02T00:59:13.920Z,1015.04
2018-08-02T01:00:13.903Z,1015.01
2018-08-02T01:01:13.949Z,1015.04
2018-08-02T01:02:13.910Z,1015.03
2018-08-02T01:03:13.905Z,1015.00
2018-08-02T01:04:13.900Z,1015.00
2018-08-02T01:05:13.907Z,1015.00
2018-08-02T01:06:13.897Z,1015.00
2018-08-02T01:07:13.894Z,1014.96
2018-08-02T01:08:13.894Z,1014.97
2018-08-02T01:09:13.897Z,1014.97
2018-08-02T01:10:13.896Z,1014.98
2018-08-02T01:11:13.893Z,1014.96
2018-08-02T01:12:13.894Z,1014.99
2018-08-02T01:13:13.894Z,1014.99
2018-08-02T01:14:13.887Z,1014.99
2018-08-02T01:15:13.892Z,1015.04
2018-08-02T01:16:13.883Z,1014.99
2018-08-02T01:17:13.884Z,1014.96
2018-08-02T01:18:13.888Z,1015.00
2018-08-02T01:19:13.884Z,1015.04
2018-08-02T01:20:13.883Z,1014.98
2018-08-02T01:21:13.918Z,1015.02
2018-08-02T01:22:13.877Z,1015.01
2018-08-02T01:23:13.877Z,1015.01
2018-08-02T01:24:13.879Z,1015.04
2018-08-02T01:25:13.877Z,1015.00
2018-08-02T01:26:13.877Z,1015.02
2018-08-02T01:27:13.876Z,1014.98
2018-08-02T01:28:13.871Z,1014.98
2018-08-02T01:29:13.867Z,1014.98
2018-08-02T01:30:13.870Z,1015.00
2018-08-02T01:31:13.867Z,1015.00
2018-08-02T01:32:13.868Z,1015.04
2018-08-02T01:33:13.868Z,1015.05
2018-08-02T01:34:13.870Z,1015.02
2018-08-02T01:35:13.862Z,1015.05
2018-08-02T01:36:13.861Z,1015.04
2018-08-02T01:37:13.860Z,1015.02
2018-08-02T01:38:37.820Z,1015.02
2018-08-02T01:39:13.860Z,1014.99
2018-08-02T01:40:13.865Z,1015.01
2018-08-02T01:41:13.865Z,1015.00
2018-08-02T01:42:13.855Z,1014.96
2018-08-02T01:43:13.853Z,1015.00
2018-08-02T01:44:13.848Z,1014.95
2018-08-02T01:45:13.849Z,1014.99
2018-08-02T01:46:13.853Z,1014.98
2018-08-02T01:47:13.849Z,1014.97
2018-08-02T01:48:13.856Z,1014.97
2018-08-02T01:49:13.843Z,1014.96
2018-08-02T01:50:13.845Z,1014.96
2018-08-02T01:51:13.855Z,1015.00
2018-08-02T01:52:13.838Z,1014.98
2018-08-02T01:53:13.863Z,1014.95
2018-08-02T01:54:13.841Z,1014.96
2018-08-02T01:55:13.834Z,1014.90
2018-08-02T01:56:13.841Z,1014.94
2018-08-02T01:57:13.833Z,1014.93
2018-08-02T01:58:13.833Z,1014.94
2018-08-02T01:59:13.833Z,1014.95
2018-08-02T02:00:13.832Z,1014.94
2018-08-02T02:01:13.831Z,1014.94
2018-08-02T02:02:13.826Z,1014.96
2018-08-02T02:03:13.829Z,1014.95
2018-08-02T02:04:13.839Z,1014.93
2018-08-02T02:05:13.821Z,1014.95
2018-08-02T02:06:13.828Z,1014.95
2018-08-02T02:07:13.820Z,1014.92
2018-08-02T02:08:13.821Z,1014.92
2018-08-02T02:09:13.826Z,1014.96
2018-08-02T02:10:13.817Z,1014.95
2018-08-02T02:11:13.812Z,1014.98
2018-08-02T02:12:13.812Z,1014.96
2018-08-02T02:13:13.811Z,1014.99
2018-08-02T02:14:13.859Z,1015.02
2018-08-02T02:15:13.806Z,1015.01
2018-08-02T02:16:13.806Z,1014.99
2018-08-02T02:17:13.808Z,1015.02
2018-08-02T02:18:13.816Z,1015.01
2018-08-02T02:19:13.803Z,1015.01
2018-08-02T02:20:13.803Z,1015.02
2018-08-02T02:21:13.809Z,1014.99
2018-08-02T02:22:13.799Z,1015.04
2018-08-02T02:23:13.806Z,1015.04
2018-08-02T02:24:13.804Z,1015.05
2018-08-02T02:25:13.792Z,1015.01
2018-08-02T02:26:13.792Z,1015.04
2018-08-02T02:27:13.796Z,1015.00
2018-08-02T02:28:13.788Z,1015.00
2018-08-02T02:29:13.792Z,1014.96
2018-08-02T02:30:13.796Z,1014.96
2018-08-02T02:31:13.785Z,1014.95
2018-08-02T02:32:13.781Z,1014.97
2018-08-02T02:33:13.784Z,1014.94
2018-08-02T02:34:13.800Z,1014.97
2018-08-02T02:35:13.787Z,1014.94
2018-08-02T02:36:13.783Z,1014.97
2018-08-02T02:37:13.791Z,1014.98
2018-08-02T02:38:13.783Z,1015.04
2018-08-02T02:39:13.771Z,1015.01
2018-08-02T02:40:13.779Z,1015.02
2018-08-02T02:41:13.773Z,1014.99
2018-08-02T02:42:13.777Z,1014.98
2018-08-02T02:43:13.783Z,1014.99
2018-08-02T02:44:13.769Z,1015.01
2018-08-02T02:45:13.773Z,1014.98
2018-08-02T02:46:13.768Z,1015.00
2018-08-02T02:47:13.766Z,1014.97
2018-08-02T02:48:13.757Z,1014.99
2018-08-02T02:49:13.760Z,1014.97
2018-08-02T02:50:13.768Z,1014.97
2018-08-02T02:51:13.750Z,1014.99
2018-08-02T02:52:13.753Z,1014.96
2018-08-02T02:53:13.758Z,1014.95
2018-08-02T02:54:13.777Z,1014.97
2018-08-02T02:55:13.781Z,1014.96
2018-08-02T02:56:13.755Z,1014.93
2018-08-02T02:57:13.746Z,1014.95
2018-08-02T02:58:13.747Z,1014.97
2018-08-02T02:59:13.744Z,1014.99
2018-08-02T03:00:13.748Z,1014.97
2018-08-02T03:01:13.744Z,1014.94
2018-08-02T03:02:13.737Z,1014.98
2018-08-02T03:03:13.738Z,1015.01
2018-08-02T03:04:13.736Z,1014.99
2018-08-02T03:05:13.737Z,1014.99
2018-08-02T03:06:13.738Z,1014.95
2018-08-02T03:07:13.751Z,1014.98
2018-08-02T03:08:13.730Z,1014.96
2018-08-02T03:09:13.729Z,1015.01
2018-08-02T03:10:13.742Z,1015.03
2018-08-02T03:11:13.724Z,1015.05
2018-08-02T03:12:13.725Z,1015.07
2018-08-02T03:13:13.727Z,1015.14
2018-08-02T03:14:13.724Z,1015.15
2018-08-02T03:15:13.717Z,1015.17
2018-08-02T03:16:13.715Z,1015.16
2018-08-02T03:17:13.712Z,1015.18
2018-08-02T03:18:13.721Z,1015.21
2018-08-02T03:19:13.716Z,1015.23
2018-08-02T03:20:13.764Z,1015.22
2018-08-02T03:21:13.717Z,1015.26
2018-08-02T03:22:13.710Z,1015.26
2018-08-02T03:23:13.711Z,1015.31
2018-08-02T03:24:13.723Z,1015.33
2018-08-02T03:25:13.704Z,1015.37
2018-08-02T03:26:13.709Z,1015.37
2018-08-02T03:27:13.703Z,1015.41
2018-08-02T03:28:13.696Z,1015.41
2018-08-02T03:29:13.698Z,1015.38
2018-08-02T03:30:13.694Z,1015.44
2018-08-02T03:31:13.696Z,1015.41
2018-08-02T03:32:13.693Z,1015.41
2018-08-02T03:33:13.701Z,1015.42
2018-08-02T03:34:13.690Z,1015.41
2018-08-02T03:35:13.690Z,1015.45
2018-08-02T03:36:13.686Z,1015.44
2018-08-02T03:37:13.683Z,1015.48
2018-08-02T03:38:13.681Z,1015.45
2018-08-02T03:39:13.681Z,1015.44
2018-08-02T03:40:13.678Z,1015.44
2018-08-02T03:41:13.677Z,1015.47
2018-08-02T03:42:13.678Z,1015.46
2018-08-02T03:43:13.677Z,1015.44
2018-08-02T03:44:13.680Z,1015.50
2018-08-02T03:45:13.681Z,1015.52
2018-08-02T03:46:13.677Z,1015.53
2018-08-02T03:47:13.667Z,1015.49
2018-08-02T03:48:13.670Z,1015.55
2018-08-02T03:49:13.668Z,1015.56
2018-08-02T03:50:13.669Z,1015.53
2018-08-02T03:51:13.662Z,1015.54
2018-08-02T03:52:13.667Z,1015.58
2018-08-02T03:53:13.655Z,1015.58
2018-08-02T03:54:13.655Z,1015.61
2018-08-02T03:55:13.655Z,1015.57
2018-08-02T03:56:13.655Z,1015.61
2018-08-02T03:57:13.654Z,1015.65
2018-08-02T03:58:13.660Z,1015.65
2018-08-02T03:59:13.647Z,1015.68
2018-08-02T04:00:13.646Z,1015.64
2018-08-02T04:01:13.642Z,1015.68
2018-08-02T04:02:13.644Z,1015.72
2018-08-02T04:03:13.643Z,1015.71
2018-08-02T04:04:13.648Z,1015.72
2018-08-02T04:05:13.643Z,1015.74
2018-08-02T04:06:13.637Z,1015.80
2018-08-02T04:07:13.633Z,1015.77
2018-08-02T04:08:13.631Z,1015.79
2018-08-02T04:09:13.635Z,1015.78
2018-08-02T04:10:13.638Z,1015.79
2018-08-02T04:11:13.631Z,1015.82
2018-08-02T04:12:13.624Z,1015.81
2018-08-02T04:13:13.623Z,1015.84
2018-08-02T04:14:13.626Z,1015.83
2018-08-02T04:15:13.619Z,1015.84
2018-08-02T04:16:13.618Z,1015.84
2018-08-02T04:17:13.619Z,1015.82
2018-08-02T04:18:13.616Z,1015.82
2018-08-02T04:19:13.614Z,1015.87
2018-08-02T04:20:13.609Z,1015.90
2018-08-02T04:21:13.630Z,1015.90
2018-08-02T04:22:13.620Z,1015.89
2018-08-02T04:23:13.609Z,1015.90
2018-08-02T04:24:13.607Z,1015.92
2018-08-02T04:25:13.607Z,1015.93
2018-08-02T04:26:13.605Z,1015.89
2018-08-02T04:27:13.603Z,1015.94
2018-08-02T04:28:13.603Z,1015.93
2018-08-02T04:29:13.599Z,1015.95
2018-08-02T04:30:13.597Z,1015.95
2018-08-02T04:31:13.596Z,1015.92
2018-08-02T04:32:13.593Z,1015.96
2018-08-02T04:33:13.595Z,1015.96
2018-08-02T04:34:13.588Z,1015.95
2018-08-02T04:35:13.585Z,1015.93
2018-08-02T04:36:13.586Z,1015.99
2018-08-02T04:37:13.590Z,1015.98
2018-08-02T04:38:13.583Z,1015.91
2018-08-02T04:39:13.580Z,1015.96
2018-08-02T04:40:13.585Z,1015.94
2018-08-02T04:41:13.584Z,1015.92
2018-08-02T04:42:13.639Z,1015.92
2018-08-02T04:43:13.571Z,1015.90
2018-08-02T04:44:13.570Z,1015.92
2018-08-02T04:45:13.573Z,1015.92
2018-08-02T04:46:13.576Z,1015.91
2018-08-02T04:47:13.568Z,1015.96
2018-08-02T04:48:13.569Z,1015.95
2018-08-02T04:49:13.566Z,1015.95
2018-08-02T04:50:13.566Z,1015.96
2018-08-02T04:51:13.607Z,1016.01
2018-08-02T04:52:13.561Z,1015.99
2018-08-02T04:53:13.559Z,1015.98
2018-08-02T04:54:13.562Z,1015.98
2018-08-02T04:55:13.554Z,1016.01
2018-08-02T04:56:13.552Z,1015.99
2018-08-02T04:57:13.552Z,1016.03
2018-08-02T04:58:13.551Z,1016.04
2018-08-02T04:59:13.549Z,1016.02
2018-08-02T05:00:13.548Z,1016.01
2018-08-02T05:01:13.582Z,1015.98
2018-08-02T05:02:13.543Z,1016.00
2018-08-02T05:03:13.536Z,1015.98
2018-08-02T05:04:13.539Z,1015.95
2018-08-02T05:05:13.540Z,1015.94
2018-08-02T05:06:13.544Z,1015.94
2018-08-02T05:07:13.538Z,1015.95
2018-08-02T05:08:13.587Z,1015.98
2018-08-02T05:09:13.530Z,1015.93
2018-08-02T05:10:13.529Z,1015.97
2018-08-02T05:11:13.528Z,1015.95
2018-08-02T05:12:13.531Z,1015.94
2018-08-02T05:13:13.533Z,1015.94
2018-08-02T05:14:13.524Z,1015.91
2018-08-02T05:15:13.522Z,1015.95
2018-08-02T05:16:13.527Z,1015.93
2018-08-02T05:17:13.524Z,1015.98
2018-08-02T05:18:13.516Z,1016.00
2018-08-02T05:19:13.515Z,1016.02
2018-08-02T05:20:13.514Z,1016.06
2018-08-02T05:21:13.517Z,1016.01
2018-08-02T05:22:13.563Z,1016.00
2018-08-02T05:23:13.513Z,1016.02
2018-08-02T05:24:13.514Z,1016.03
2018-08-02T05:25:13.512Z,1016.02
2018-08-02T05:26:13.533Z,1016.02
2018-08-02T05:27:13.510Z,1015.98
2018-08-02T05:28:13.514Z,1016.02
2018-08-02T05:29:13.512Z,1016.03
2018-08-02T05:30:13.507Z,1016.03
2018-08-02T05:31:13.506Z,1016.05
2018-08-02T05:32:13.504Z,1016.04
2018-08-02T05:33:13.506Z,1016.05
2018-08-02T05:34:13.517Z,1016.08
2018-08-02T05:35:13.626Z,1016.09
2018-08-02T05:36:13.876Z,1016.04
2018-08-02T05:37:13.522Z,1016.04
2018-08-02T05:38:13.507Z,1016.10
2018-08-02T05:39:13.527Z,1016.09
2018-08-02T05:40:13.546Z,1016.10
2018-08-02T05:41:13.512Z,1016.07
2018-08-02T05:42:13.508Z,1016.11
2018-08-02T05:43:13.507Z,1016.11
2018-08-02T05:44:13.507Z,1016.13
2018-08-02T05:45:13.506Z,1016.15
2018-08-02T05:46:13.511Z,1016.16
2018-08-02T05:47:13.503Z,1016.18
2018-08-02T05:48:13.502Z,1016.14
2018-08-02T05:49:13.507Z,1016.17
2018-08-02T05:50:13.511Z,1016.14
2018-08-02T05:51:13.504Z,1016.20
2018-08-02T05:52:13.512Z,1016.20
2018-08-02T05:53:13.544Z,1016.16
2018-08-02T05:54:13.512Z,1016.19
2018-08-02T05:55:13.508Z,1016.23
2018-08-02T05:56:13.514Z,1016.19
2018-08-02T05:57:13.589Z,1016.21
2018-08-02T05:58:13.515Z,1016.22
2018-08-02T05:59:13.516Z,1016.25
2018-08-02T06:00:13.517Z,1016.28
2018-08-02T06:01:13.515Z,1016.26
2018-08-02T06:02:13.520Z,1016.28
2018-08-02T06:03:13.523Z,1016.27
2018-08-02T06:04:13.520Z,1016.26
2018-08-02T06:05:13.520Z,1016.27
2018-08-02T06:06:13.522Z,1016.25
2018-08-02T06:07:13.523Z,1016.26
2018-08-02T06:08:13.539Z,1016.24
2018-08-02T06:09:13.526Z,1016.23
2018-08-02T06:10:13.529Z,1016.21
2018-08-02T06:11:13.535Z,1016.23
2018-08-02T06:12:13.586Z,1016.22
2018-08-02T06:13:13.547Z,1016.23
2018-08-02T06:14:13.537Z,1016.26
2018-08-02T06:15:13.541Z,1016.28
2018-08-02T06:16:13.545Z,1016.25
2018-08-02T06:17:13.548Z,1016.26
2018-08-02T06:18:13.549Z,1016.29
2018-08-02T06:19:13.552Z,1016.32
2018-08-02T06:20:13.556Z,1016.28
2018-08-02T06:21:13.555Z,1016.27
2018-08-02T06:22:13.557Z,1016.30
2018-08-02T06:23:13.560Z,1016.28
2018-08-02T06:24:13.609Z,1016.29
2018-08-02T06:25:13.568Z,1016.28
2018-08-02T06:26:13.572Z,1016.33
2018-08-02T06:27:13.572Z,1016.29
2018-08-02T06:28:13.598Z,1016.28
2018-08-02T06:29:13.601Z,1016.29
2018-08-02T06:30:13.624Z,1016.26
2018-08-02T06:31:13.582Z,1016.29
2018-08-02T06:32:13.611Z,1016.25
2018-08-02T06:33:13.605Z,1016.28
2018-08-02T06:34:13.595Z,1016.27
2018-08-02T06:35:13.597Z,1016.27
2018-08-02T06:36:13.601Z,1016.26
2018-08-02T06:37:13.597Z,1016.26
2018-08-02T06:38:13.599Z,1016.25
2018-08-02T06:39:13.606Z,1016.25
2018-08-02T06:40:13.607Z,1016.22
2018-08-02T06:41:13.612Z,1016.26
2018-08-02T06:42:13.619Z,1016.29
2018-08-02T06:43:13.626Z,1016.24
2018-08-02T06:44:13.619Z,1016.24
2018-08-02T06:45:13.664Z,1016.24
2018-08-02T06:46:13.639Z,1016.23
2018-08-02T06:47:13.628Z,1016.19
2018-08-02T06:48:13.636Z,1016.23
2018-08-02T06:49:13.636Z,1016.23
2018-08-02T06:50:13.634Z,1016.27
2018-08-02T06:51:13.638Z,1016.18
2018-08-02T06:52:13.647Z,1016.16
2018-08-02T06:53:13.642Z,1016.19
2018-08-02T06:54:13.648Z,1016.22
2018-08-02T06:55:13.652Z,1016.19
2018-08-02T06:56:13.656Z,1016.16
2018-08-02T06:57:13.662Z,1016.22
2018-08-02T06:58:13.659Z,1016.20
2018-08-02T06:59:13.677Z,1016.22
2018-08-02T07:00:13.667Z,1016.23
2018-08-02T07:01:13.674Z,1016.18
2018-08-02T07:02:13.674Z,1016.23
2018-08-02T07:03:13.679Z,1016.25
2018-08-02T07:04:13.678Z,1016.27
2018-08-02T07:05:13.685Z,1016.33
2018-08-02T07:06:13.692Z,1016.32
2018-08-02T07:07:13.692Z,1016.31
2018-08-02T07:08:13.698Z,1016.35
2018-08-02T07:09:13.704Z,1016.31
2018-08-02T07:10:13.707Z,1016.31
2018-08-02T07:11:13.710Z,1016.33
2018-08-02T07:12:13.719Z,1016.36
2018-08-02T07:13:13.726Z,1016.34
2018-08-02T07:14:13.723Z,1016.37
2018-08-02T07:15:13.728Z,1016.36
2018-08-02T07:16:13.733Z,1016.36
2018-08-02T07:17:13.737Z,1016.36
2018-08-02T07:18:13.807Z,1016.32
2018-08-02T07:19:13.743Z,1016.32
2018-08-02T07:20:13.750Z,1016.32
2018-08-02T07:21:13.755Z,1016.30
2018-08-02T07:22:13.758Z,1016.29
2018-08-02T07:23:13.765Z,1016.29
2018-08-02T07:24:13.774Z,1016.29
2018-08-02T07:25:13.778Z,1016.29
2018-08-02T07:26:13.783Z,1016.27
2018-08-02T07:27:13.780Z,1016.26
2018-08-02T07:28:13.791Z,1016.27
2018-08-02T07:29:13.810Z,1016.28
2018-08-02T07:30:13.801Z,1016.29
2018-08-02T07:31:13.803Z,1016.28
2018-08-02T07:32:13.808Z,1016.29
2018-08-02T07:33:13.816Z,1016.27
2018-08-02T07:34:13.818Z,1016.29
2018-08-02T07:35:13.824Z,1016.25
2018-08-02T07:36:13.833Z,1016.24
2018-08-02T07:37:13.837Z,1016.25
2018-08-02T07:38:13.840Z,1016.27
2018-08-02T07:39:13.846Z,1016.23
2018-08-02T07:40:13.851Z,1016.22
2018-08-02T07:41:13.855Z,1016.28
2018-08-02T07:42:13.863Z,1016.29
2018-08-02T07:43:13.985Z,1016.27
2018-08-02T07:44:13.975Z,1016.30
2018-08-02T07:45:13.892Z,1016.30
2018-08-02T07:46:13.889Z,1016.27
2018-08-02T07:47:13.896Z,1016.31
2018-08-02T07:48:13.899Z,1016.32
2018-08-02T07:49:13.906Z,1016.30
2018-08-02T07:50:13.930Z,1016.29
2018-08-02T07:51:13.928Z,1016.32
2018-08-02T07:52:13.921Z,1016.33
2018-08-02T07:53:13.946Z,1016.35
2018-08-02T07:54:13.946Z,1016.36
2018-08-02T07:55:13.949Z,1016.36
2018-08-02T07:56:13.965Z,1016.36
2018-08-02T07:57:13.973Z,1016.41
2018-08-02T07:58:13.965Z,1016.38
2018-08-02T07:59:13.971Z,1016.35
2018-08-02T08:00:13.970Z,1016.37
2018-08-02T08:01:13.977Z,1016.39
2018-08-02T08:02:13.988Z,1016.34
2018-08-02T08:03:13.993Z,1016.37
2018-08-02T08:04:13.998Z,1016.35
2018-08-02T08:05:14.005Z,1016.37
2018-08-02T08:06:14.009Z,1016.36
2018-08-02T08:07:14.018Z,1016.38
2018-08-02T08:08:14.028Z,1016.36
2018-08-02T08:09:14.031Z,1016.35
2018-08-02T08:10:14.036Z,1016.36
2018-08-02T08:11:14.142Z,1016.35
2018-08-02T08:12:14.059Z,1016.32
2018-08-02T08:13:14.059Z,1016.31
2018-08-02T08:14:14.069Z,1016.32
2018-08-02T08:15:14.078Z,1016.35
2018-08-02T08:16:14.091Z,1016.30
2018-08-02T08:17:14.090Z,1016.31
2018-08-02T08:18:14.095Z,1016.35
2018-08-02T08:19:14.107Z,1016.32
2018-08-02T08:20:15.943Z,1016.35
2018-08-02T08:21:15.831Z,1016.34
2018-08-02T08:22:15.889Z,1016.32
2018-08-02T08:23:14.165Z,1016.35
2018-08-02T08:24:14.139Z,1016.39
2018-08-02T08:25:14.145Z,1016.37
2018-08-02T08:26:14.188Z,1016.34
2018-08-02T08:27:14.163Z,1016.37
2018-08-02T08:28:14.169Z,1016.33
2018-08-02T08:29:14.185Z,1016.32
2018-08-02T08:30:14.188Z,1016.28
2018-08-02T08:31:14.195Z,1016.32
2018-08-02T08:32:14.263Z,1016.32
2018-08-02T08:33:14.236Z,1016.31
2018-08-02T08:34:14.228Z,1016.29
2018-08-02T08:35:14.228Z,1016.31
2018-08-02T08:36:14.342Z,1016.30
2018-08-02T08:37:23.622Z,1016.27
2018-08-02T08:38:14.252Z,1016.23
2018-08-02T08:39:14.260Z,1016.22
2018-08-02T08:40:14.281Z,1016.22
2018-08-02T08:41:14.281Z,1016.23
2018-08-02T08:42:14.291Z,1016.24
2018-08-02T08:43:14.302Z,1016.25
2018-08-02T08:44:14.306Z,1016.26
2018-08-02T08:45:14.312Z,1016.26
2018-08-02T08:46:14.359Z,1016.24
2018-08-02T08:47:14.360Z,1016.26
2018-08-02T08:48:14.346Z,1016.28
2018-08-02T08:49:14.351Z,1016.23
2018-08-02T08:50:14.365Z,1016.25
2018-08-02T08:51:14.366Z,1016.22
2018-08-02T08:52:14.412Z,1016.25
2018-08-02T08:53:14.386Z,1016.23
2018-08-02T08:54:14.396Z,1016.23
2018-08-02T08:55:14.415Z,1016.24
2018-08-02T08:56:14.416Z,1016.22
2018-08-02T08:57:14.426Z,1016.22
2018-08-02T08:58:14.434Z,1016.22
2018-08-02T08:59:14.439Z,1016.19
2018-08-02T09:00:14.450Z,1016.20
2018-08-02T09:01:14.488Z,1016.22
2018-08-02T09:02:14.476Z,1016.26
2018-08-02T09:03:14.544Z,1016.24
2018-08-02T09:04:14.488Z,1016.20
2018-08-02T09:05:14.507Z,1016.17
2018-08-02T09:06:14.515Z,1016.21
2018-08-02T09:07:14.522Z,1016.21
2018-08-02T09:08:14.541Z,1016.20
2018-08-02T09:09:14.570Z,1016.17
2018-08-02T09:10:14.559Z,1016.17
2018-08-02T09:11:14.579Z,1016.19
2018-08-02T09:12:14.574Z,1016.19
2018-08-02T09:13:14.590Z,1016.20
2018-08-02T09:14:14.600Z,1016.20
2018-08-02T09:15:14.604Z,1016.18
2018-08-02T09:16:14.642Z,1016.16
2018-08-02T09:17:14.630Z,1016.14
2018-08-02T09:18:14.639Z,1016.16
2018-08-02T09:19:14.652Z,1016.18
2018-08-02T09:20:14.655Z,1016.20
2018-08-02T09:21:14.673Z,1016.20
2018-08-02T09:22:14.689Z,1016.17
2018-08-02T09:23:14.699Z,1016.23
2018-08-02T09:24:14.741Z,1016.24
2018-08-02T09:25:14.710Z,1016.22
2018-08-02T09:26:14.731Z,1016.19
2018-08-02T09:27:14.733Z,1016.22
2018-08-02T09:28:14.772Z,1016.18
2018-08-02T09:29:14.770Z,1016.21
2018-08-02T09:30:14.783Z,1016.24
2018-08-02T09:31:14.790Z,1016.22
2018-08-02T09:32:14.855Z,1016.21
2018-08-02T09:33:14.941Z,1016.23
2018-08-02T09:34:14.817Z,1016.21
2018-08-02T09:35:14.839Z,1016.19
2018-08-02T09:36:14.862Z,1016.21
2018-08-02T09:37:14.852Z,1016.16
2018-08-02T09:38:14.861Z,1016.19
2018-08-02T09:39:14.895Z,1016.19
2018-08-02T09:40:14.891Z,1016.15
2018-08-02T09:41:14.909Z,1016.16
2018-08-02T09:42:14.918Z,1016.17
2018-08-02T09:43:14.926Z,1016.17
2018-08-02T09:44:14.943Z,1016.17
2018-08-02T09:45:14.953Z,1016.15
2018-08-02T09:46:14.987Z,1016.15
2018-08-02T09:47:14.976Z,1016.12
2018-08-02T09:48:14.988Z,1016.13
2018-08-02T09:49:15.011Z,1016.13
2018-08-02T09:50:15.018Z,1016.15
2018-08-02T09:51:15.062Z,1016.17
2018-08-02T09:52:15.061Z,1016.14
2018-08-02T09:53:15.056Z,1016.15
2018-08-02T09:54:15.091Z,1016.17
2018-08-02T09:55:15.095Z,1016.15
2018-08-02T09:56:15.106Z,1016.12
2018-08-02T09:57:15.129Z,1016.14
2018-08-02T09:58:15.119Z,1016.12
2018-08-02T09:59:15.132Z,1016.12
2018-08-02T10:00:15.171Z,1016.09
2018-08-02T10:01:15.169Z,1016.10
2018-08-02T10:02:15.168Z,1016.09
2018-08-02T10:03:16.110Z,1016.07
2018-08-02T10:04:15.199Z,1016.03
2018-08-02T10:05:15.225Z,1016.07
2018-08-02T10:06:15.235Z,1016.08
2018-08-02T10:07:15.234Z,1016.05
2018-08-02T10:08:15.244Z,1016.06
2018-08-02T10:09:15.276Z,1016.07
2018-08-02T10:10:15.290Z,1016.07
2018-08-02T10:11:15.286Z,1016.09
2018-08-02T10:12:15.292Z,1016.08
2018-08-02T10:13:15.306Z,1016.07
2018-08-02T10:14:15.323Z,1016.03
2018-08-02T10:15:15.334Z,1016.02
2018-08-02T10:16:15.350Z,1016.02
2018-08-02T10:17:15.361Z,1016.02
2018-08-02T10:18:15.372Z,1016.01
2018-08-02T10:19:15.386Z,1016.04
2018-08-02T10:20:15.399Z,1016.05
2018-08-02T10:21:15.414Z,1016.04
2018-08-02T10:22:15.434Z,1016.06
2018-08-02T10:23:15.456Z,1016.04
2018-08-02T10:24:15.456Z,1016.03
2018-08-02T10:25:15.461Z,1016.04
2018-08-02T10:26:15.494Z,1016.04
2018-08-02T10:27:15.488Z,1016.08
2018-08-02T10:28:15.502Z,1016.08
2018-08-02T10:29:15.537Z,1016.07
2018-08-02T10:30:15.532Z,1016.04
2018-08-02T10:31:15.546Z,1016.04
2018-08-02T10:32:15.562Z,1016.02
2018-08-02T10:33:15.574Z,1015.98
2018-08-02T10:34:15.584Z,1015.99
2018-08-02T10:35:15.604Z,1015.96
2018-08-02T10:36:15.610Z,1015.98
2018-08-02T10:37:16.124Z,1015.96
2018-08-02T10:38:15.651Z,1015.91
2018-08-02T10:39:15.661Z,1015.95
2018-08-02T10:40:15.671Z,1015.94
2018-08-02T10:41:15.678Z,1015.92
2018-08-02T10:42:15.688Z,1015.88
2018-08-02T10:43:15.697Z,1015.90
2018-08-02T10:44:15.741Z,1015.91
2018-08-02T10:45:15.731Z,1015.95
2018-08-02T10:46:15.745Z,1015.97
2018-08-02T10:47:15.764Z,1015.95
2018-08-02T10:48:15.772Z,1015.92
2018-08-02T10:49:15.789Z,1015.91
2018-08-02T10:50:15.802Z,1015.89
2018-08-02T10:51:15.834Z,1015.90
2018-08-02T10:52:15.828Z,1015.91
2018-08-02T10:53:15.837Z,1015.91
2018-08-02T10:54:15.857Z,1015.93
2018-08-02T10:55:15.908Z,1015.94
2018-08-02T10:56:15.960Z,1015.95
2018-08-02T10:57:15.897Z,1015.92
2018-08-02T10:58:15.915Z,1015.92
2018-08-02T10:59:15.930Z,1015.88
2018-08-02T11:00:15.940Z,1015.83
2018-08-02T11:01:15.964Z,1015.87
2018-08-02T11:02:16.067Z,1015.85
2018-08-02T11:03:15.995Z,1015.80
2018-08-02T11:04:16.001Z,1015.83
2018-08-02T11:05:16.012Z,1015.79
2018-08-02T11:06:16.053Z,1015.83
2018-08-02T11:07:16.055Z,1015.86
2018-08-02T11:08:16.079Z,1015.86
2018-08-02T11:09:16.069Z,1015.82
2018-08-02T11:10:16.080Z,1015.83
2018-08-02T11:11:16.111Z,1015.75
2018-08-02T11:12:16.106Z,1015.81
2018-08-02T11:13:16.117Z,1015.80
2018-08-02T11:14:16.136Z,1015.84
2018-08-02T11:15:16.149Z,1015.81
2018-08-02T11:16:16.175Z,1015.84
2018-08-02T11:17:16.177Z,1015.76
2018-08-02T11:18:16.192Z,1015.80
2018-08-02T11:19:16.204Z,1015.80
2018-08-02T11:20:16.214Z,1015.78
2018-08-02T11:21:16.228Z,1015.80
2018-08-02T11:22:16.275Z,1015.75
2018-08-02T11:23:16.276Z,1015.73
2018-08-02T11:24:16.272Z,1015.76
2018-08-02T11:25:16.287Z,1015.76
2018-08-02T11:26:16.301Z,1015.71
2018-08-02T11:27:16.308Z,1015.76
2018-08-02T11:28:16.379Z,1015.76
2018-08-02T11:29:16.343Z,1015.78
2018-08-02T11:30:16.357Z,1015.78
2018-08-02T11:31:16.367Z,1015.79
2018-08-02T11:32:16.387Z,1015.81
2018-08-02T11:33:16.397Z,1015.77
2018-08-02T11:34:16.412Z,1015.80
2018-08-02T11:35:16.425Z,1015.83
2018-08-02T11:36:16.460Z,1015.81
2018-08-02T11:37:16.458Z,1015.82
2018-08-02T11:38:16.466Z,1015.81
2018-08-02T11:39:16.485Z,1015.87
2018-08-02T11:40:16.492Z,1015.76
2018-08-02T11:41:16.508Z,1015.77
2018-08-02T11:42:16.526Z,1015.78
2018-08-02T11:43:16.537Z,1015.81
2018-08-02T11:44:16.554Z,1015.76
2018-08-02T11:45:16.565Z,1015.74
2018-08-02T11:46:16.588Z,1015.75
2018-08-02T11:47:16.595Z,1015.76
2018-08-02T11:48:16.610Z,1015.74
2018-08-02T11:49:16.623Z,1015.72
2018-08-02T11:50:16.641Z,1015.70
2018-08-02T11:51:16.649Z,1015.71
2018-08-02T11:52:16.665Z,1015.67
2018-08-02T11:53:16.680Z,1015.66
2018-08-02T11:54:16.692Z,1015.68
2018-08-02T11:55:16.708Z,1015.68
2018-08-02T11:56:16.732Z,1015.64
2018-08-02T11:57:16.786Z,1015.60
2018-08-02T11:58:16.751Z,1015.63
2018-08-02T11:59:16.765Z,1015.62
2018-08-02T12:00:16.786Z,1015.59
2018-08-02T12:01:16.794Z,1015.65
2018-08-02T12:02:16.810Z,1015.62
2018-08-02T12:03:16.821Z,1015.60
2018-08-02T12:04:16.850Z,1015.56
2018-08-02T12:05:16.852Z,1015.58